Terminal Aerodrome Forecast
Issued by NWS

Home | Current Version | Previous Version | Text Only | Print | Product List | Glossary On
Versions: 1 2 3 4 5 6 7 8 9 10 11 12 13 14 15 16 17 18 19 20 21 22 23 24 25 26 27 28 29 30 31
000
FTUS46 KPQR 271729
TAFONP
TAF
KONP 271729Z 2718/2818 24008KT 6SM -RA BR SCT008 BKN015 OVC030
      TEMPO 2719/2723 3SM -RA BR BKN008 OVC012
     FM272300 26009KT P6SM -SHRA SCT015 BKN030 OVC040
      TEMPO 2723/2803 BKN015 OVC030
     FM280300 27011G20KT P6SM -SHRA SCT030 BKN040
      TEMPO 2803/2807 SCT015 BKN030
     FM281000 28008KT P6SM VCSH SCT030 BKN040=

USA.gov is the U.S. government's official web portal to all federal, state and local government web resources and services.